createdAt,value
2022-10-06T00:00:16.210Z,17.40
2022-10-06T00:04:41.447Z,17.40
2022-10-06T00:09:06.697Z,17.40
2022-10-06T00:13:32.784Z,17.30
2022-10-06T00:17:58.643Z,17.30
2022-10-06T00:22:23.866Z,17.30
2022-10-06T00:26:49.265Z,17.20
2022-10-06T00:31:15.001Z,17.20
2022-10-06T00:35:40.633Z,17.20
2022-10-06T00:40:09.734Z,17.10
2022-10-06T00:44:35.009Z,17.10
2022-10-06T00:49:32.482Z,17.10
2022-10-06T00:53:58.208Z,17.00
2022-10-06T00:58:24.639Z,16.90
2022-10-06T01:02:57.304Z,16.90
2022-10-06T01:07:24.610Z,16.90
2022-10-06T01:11:54.023Z,16.80
2022-10-06T01:16:24.257Z,16.70
2022-10-06T01:21:19.001Z,16.60
2022-10-06T01:25:44.991Z,16.50
2022-10-06T01:30:15.160Z,16.50
2022-10-06T01:34:40.336Z,16.50
2022-10-06T01:39:05.578Z,16.40
2022-10-06T01:43:30.775Z,16.40
2022-10-06T01:47:56.443Z,16.40
2022-10-06T01:52:21.776Z,16.40
2022-10-06T01:56:46.960Z,16.20
2022-10-06T02:01:12.412Z,16.20
2022-10-06T02:05:37.753Z,16.10
2022-10-06T02:10:05.507Z,16.00
2022-10-06T02:14:32.111Z,16.00
2022-10-06T02:18:57.532Z,15.90
2022-10-06T02:23:22.778Z,15.80
2022-10-06T02:27:47.941Z,15.80
2022-10-06T02:32:13.133Z,15.70
2022-10-06T02:36:38.481Z,15.70
2022-10-06T02:41:04.243Z,15.70
2022-10-06T02:45:31.109Z,15.60
2022-10-06T02:49:56.319Z,15.60
2022-10-06T02:54:22.878Z,15.50
2022-10-06T02:58:49.941Z,15.50
2022-10-06T03:03:15.115Z,15.50
2022-10-06T03:07:40.328Z,15.50
2022-10-06T03:12:05.617Z,15.40
2022-10-06T03:16:35.149Z,15.40
2022-10-06T03:21:01.759Z,15.40
2022-10-06T03:25:26.981Z,15.30
2022-10-06T03:29:52.501Z,15.30
2022-10-06T03:34:17.656Z,15.20
2022-10-06T03:38:43.244Z,15.20
2022-10-06T03:43:10.209Z,15.10
2022-10-06T03:47:35.427Z,15.10
2022-10-06T03:52:00.637Z,15.00
2022-10-06T03:56:37.085Z,15.00
2022-10-06T04:01:09.828Z,14.90
2022-10-06T04:05:35.049Z,14.90
2022-10-06T04:10:00.362Z,14.80
2022-10-06T04:14:25.879Z,14.80
2022-10-06T04:18:55.842Z,14.80
2022-10-06T04:23:21.548Z,14.80
2022-10-06T04:27:46.749Z,14.80
2022-10-06T04:32:11.970Z,14.70
2022-10-06T04:36:40.860Z,14.70
2022-10-06T04:41:17.856Z,14.70
2022-10-06T04:45:43.079Z,14.60
2022-10-06T04:50:09.123Z,14.60
2022-10-06T04:54:34.313Z,14.60
2022-10-06T04:58:59.686Z,15.10
2022-10-06T05:03:25.504Z,14.70
2022-10-06T05:07:51.045Z,14.50
2022-10-06T05:12:16.550Z,14.50
2022-10-06T05:16:43.031Z,14.50
2022-10-06T05:21:13.778Z,14.40
2022-10-06T05:25:39.511Z,14.40
2022-10-06T05:30:05.086Z,14.30
2022-10-06T05:34:30.477Z,14.20
2022-10-06T05:38:57.366Z,14.20
2022-10-06T05:43:23.990Z,14.20
2022-10-06T05:47:49.216Z,14.10
2022-10-06T05:52:14.508Z,14.10
2022-10-06T05:56:40.108Z,14.10
2022-10-06T06:01:15.215Z,14.00
2022-10-06T06:05:42.375Z,14.00
2022-10-06T06:10:09.404Z,14.00
2022-10-06T06:14:52.829Z,14.00
2022-10-06T06:19:18.021Z,14.00
2022-10-06T06:23:46.687Z,14.00
2022-10-06T06:28:11.998Z,13.90
2022-10-06T06:32:37.248Z,13.90
2022-10-06T06:37:07.578Z,13.90
2022-10-06T06:41:37.942Z,14.00
2022-10-06T06:46:04.412Z,14.00
2022-10-06T06:50:29.745Z,14.00
2022-10-06T06:54:57.367Z,14.00
2022-10-06T06:59:22.876Z,14.00
2022-10-06T07:03:58.795Z,14.00
2022-10-06T07:08:24.935Z,14.10
2022-10-06T07:12:50.263Z,14.10
2022-10-06T07:17:34.381Z,14.20
2022-10-06T07:22:21.622Z,14.20
2022-10-06T07:26:46.871Z,14.20
2022-10-06T07:31:12.141Z,14.40
2022-10-06T07:35:39.277Z,14.50
2022-10-06T07:40:07.174Z,14.50
2022-10-06T07:44:32.406Z,14.60
2022-10-06T07:48:57.697Z,14.70
2022-10-06T07:53:27.947Z,14.70
2022-10-06T07:57:53.225Z,14.70
2022-10-06T08:02:19.880Z,14.80
2022-10-06T08:06:45.189Z,14.90
2022-10-06T08:11:12.204Z,15.00
2022-10-06T08:15:37.623Z,15.10
2022-10-06T08:20:05.497Z,15.20
2022-10-06T08:24:54.231Z,15.30
2022-10-06T08:29:16.103Z,15.30
2022-10-06T08:33:42.928Z,15.40
2022-10-06T08:38:08.133Z,15.40
2022-10-06T08:42:46.441Z,15.60
2022-10-06T08:47:20.199Z,15.60
2022-10-06T08:52:02.184Z,15.70
2022-10-06T08:56:36.353Z,15.70
2022-10-06T09:01:15.234Z,15.80
2022-10-06T09:05:40.785Z,16.00
2022-10-06T09:10:16.330Z,16.00
2022-10-06T09:15:05.791Z,16.00
2022-10-06T09:19:51.627Z,16.20
2022-10-06T09:24:28.008Z,16.30
2022-10-06T09:28:55.102Z,16.40
2022-10-06T09:33:25.107Z,16.40
2022-10-06T09:37:57.053Z,16.50
2022-10-06T09:42:35.532Z,16.50
2022-10-06T09:47:01.039Z,16.60
2022-10-06T09:51:27.859Z,16.60
2022-10-06T09:55:54.932Z,16.70
2022-10-06T10:00:27.701Z,16.90
2022-10-06T10:04:56.308Z,17.00
2022-10-06T10:09:27.207Z,16.90
2022-10-06T10:13:53.125Z,16.90
2022-10-06T10:18:26.472Z,17.00
2022-10-06T10:22:53.468Z,17.10
2022-10-06T10:27:28.176Z,17.10
2022-10-06T10:32:12.256Z,17.10
2022-10-06T10:37:04.408Z,17.10
2022-10-06T10:41:42.717Z,17.10
2022-10-06T10:46:27.335Z,17.10
2022-10-06T10:51:12.067Z,17.20
2022-10-06T10:55:45.201Z,17.20
2022-10-06T11:00:25.332Z,17.20
2022-10-06T11:05:10.710Z,17.10
2022-10-06T11:09:57.251Z,17.00
2022-10-06T11:15:00.196Z,17.00
2022-10-06T11:19:54.387Z,17.00
2022-10-06T11:24:48.441Z,16.90
2022-10-06T11:29:56.179Z,17.00
2022-10-06T11:34:21.650Z,17.10
2022-10-06T11:38:57.608Z,17.10
2022-10-06T11:43:41.581Z,17.20
2022-10-06T11:48:27.173Z,17.20
2022-10-06T11:52:53.198Z,17.20
2022-10-06T11:57:30.643Z,17.40
2022-10-06T12:01:58.562Z,17.60
2022-10-06T12:06:42.562Z,17.70
2022-10-06T12:11:43.045Z,17.70
2022-10-06T12:17:09.396Z,17.60
2022-10-06T12:21:40.097Z,17.50
2022-10-06T12:26:27.081Z,17.70
2022-10-06T12:31:05.694Z,17.90
2022-10-06T12:35:33.204Z,18.00
2022-10-06T12:40:43.702Z,18.10
2022-10-06T12:45:16.764Z,18.00
2022-10-06T12:50:04.588Z,17.90
2022-10-06T12:54:36.134Z,18.00
2022-10-06T12:59:24.725Z,18.10
2022-10-06T13:03:52.610Z,18.30
2022-10-06T13:08:38.471Z,18.50
2022-10-06T13:13:24.866Z,18.50
2022-10-06T13:17:55.085Z,18.40
2022-10-06T13:22:21.029Z,18.30
2022-10-06T13:26:47.492Z,18.50
2022-10-06T13:31:33.479Z,18.50
2022-10-06T13:35:59.311Z,18.60
2022-10-06T13:40:47.524Z,18.70
2022-10-06T13:45:15.317Z,18.70
2022-10-06T13:50:19.736Z,18.50
2022-10-06T13:54:56.808Z,18.50
2022-10-06T13:59:38.954Z,18.50
2022-10-06T14:04:18.287Z,18.40
2022-10-06T14:08:57.200Z,18.50
2022-10-06T14:13:44.084Z,18.70
2022-10-06T14:18:24.595Z,18.80
2022-10-06T14:22:49.917Z,18.70
2022-10-06T14:27:15.166Z,18.70
2022-10-06T14:31:40.374Z,18.70
2022-10-06T14:36:05.835Z,18.80
2022-10-06T14:40:31.071Z,18.90
2022-10-06T14:44:56.471Z,19.00
2022-10-06T14:49:21.955Z,18.70
2022-10-06T14:53:55.047Z,18.70
2022-10-06T14:58:20.307Z,18.80
2022-10-06T15:02:45.654Z,18.80
2022-10-06T15:07:29.715Z,18.90
2022-10-06T15:11:55.130Z,18.90
2022-10-06T15:16:23.191Z,18.80
2022-10-06T15:20:48.517Z,18.90
2022-10-06T15:25:33.680Z,18.80
2022-10-06T15:29:58.980Z,18.70
2022-10-06T15:34:27.712Z,18.70
2022-10-06T15:38:55.198Z,18.50
2022-10-06T15:43:40.376Z,18.50
2022-10-06T15:48:09.286Z,18.40
2022-10-06T15:52:34.651Z,18.30
2022-10-06T15:57:05.773Z,18.20
2022-10-06T16:01:33.605Z,18.00
2022-10-06T16:06:00.592Z,17.90
2022-10-06T16:10:25.875Z,17.80
2022-10-06T16:14:51.976Z,17.70
2022-10-06T16:19:19.041Z,17.50
2022-10-06T16:23:44.244Z,17.40
2022-10-06T16:28:09.565Z,17.30
2022-10-06T16:32:34.792Z,17.20
2022-10-06T16:37:00.020Z,17.10
2022-10-06T16:41:25.291Z,17.00
2022-10-06T16:46:02.122Z,16.90
2022-10-06T16:50:27.804Z,16.80
2022-10-06T16:54:53.080Z,16.70
2022-10-06T16:59:20.936Z,16.60
2022-10-06T17:03:46.365Z,16.40
2022-10-06T17:08:11.647Z,16.40
2022-10-06T17:12:37.620Z,16.20
2022-10-06T17:17:03.744Z,16.10
2022-10-06T17:21:45.655Z,15.90
2022-10-06T17:26:18.931Z,15.80
2022-10-06T17:30:52.681Z,15.70
2022-10-06T17:35:20.086Z,15.70
2022-10-06T17:39:47.284Z,15.50
2022-10-06T17:44:23.023Z,15.50
2022-10-06T17:48:56.336Z,15.40
2022-10-06T17:53:21.710Z,15.20
2022-10-06T17:57:46.910Z,15.10
2022-10-06T18:02:13.502Z,15.00
2022-10-06T18:06:38.892Z,15.00
2022-10-06T18:11:23.849Z,14.80
2022-10-06T18:15:50.933Z,14.70
2022-10-06T18:20:16.259Z,14.70
2022-10-06T18:24:41.466Z,14.60
2022-10-06T18:29:07.023Z,14.50
2022-10-06T18:38:17.469Z,14.40
2022-10-06T18:42:42.807Z,14.20
2022-10-06T18:47:26.385Z,14.20
2022-10-06T18:51:58.440Z,14.10
2022-10-06T18:56:31.315Z,14.00
2022-10-06T19:00:56.838Z,13.90
2022-10-06T19:05:22.730Z,13.80
2022-10-06T19:09:48.111Z,13.70
2022-10-06T19:14:27.469Z,13.70
2022-10-06T19:18:52.861Z,13.60
2022-10-06T19:23:18.098Z,13.60
2022-10-06T19:27:43.438Z,13.50
2022-10-06T19:32:09.248Z,13.50
2022-10-06T19:36:35.312Z,13.40
2022-10-06T19:41:22.247Z,13.40
2022-10-06T19:45:57.913Z,13.30
2022-10-06T19:50:23.206Z,13.20
2022-10-06T19:54:48.473Z,13.10
2022-10-06T19:59:19.342Z,13.00
2022-10-06T20:03:45.035Z,13.00
2022-10-06T20:08:10.253Z,12.90
2022-10-06T20:12:35.821Z,12.80
2022-10-06T20:17:02.698Z,12.70
2022-10-06T20:21:33.052Z,12.60
2022-10-06T20:26:16.103Z,12.60
2022-10-06T20:30:49.484Z,12.60
2022-10-06T20:35:15.548Z,12.40
2022-10-06T20:39:59.192Z,12.40
2022-10-06T20:44:25.020Z,12.30
2022-10-06T20:48:51.189Z,12.20
2022-10-06T20:53:17.264Z,12.20
2022-10-06T20:57:42.612Z,12.10
2022-10-06T21:02:09.788Z,12.10
2022-10-06T21:06:38.507Z,12.00
2022-10-06T21:11:03.710Z,11.90
2022-10-06T21:15:28.943Z,11.80
2022-10-06T21:19:54.358Z,11.80
2022-10-06T21:24:20.593Z,11.70
2022-10-06T21:28:46.372Z,11.50
2022-10-06T21:33:11.579Z,11.40
2022-10-06T21:37:36.749Z,11.30
2022-10-06T21:42:01.968Z,11.30
2022-10-06T21:46:41.575Z,11.20
2022-10-06T21:51:06.728Z,11.20
2022-10-06T21:55:31.847Z,11.10
2022-10-06T21:59:56.991Z,11.10
2022-10-06T22:04:22.216Z,11.00
2022-10-06T22:08:47.690Z,11.00
2022-10-06T22:13:12.813Z,10.90
2022-10-06T22:17:37.906Z,10.80
2022-10-06T22:22:03.046Z,10.80
2022-10-06T22:26:29.467Z,10.80
2022-10-06T22:31:07.755Z,10.70
2022-10-06T22:35:32.904Z,10.60
2022-10-06T22:39:58.067Z,10.60
2022-10-06T22:44:23.169Z,10.50
2022-10-06T22:48:48.264Z,10.50
2022-10-06T22:53:15.240Z,10.40
2022-10-06T22:57:40.331Z,10.40
2022-10-06T23:02:05.496Z,10.30
2022-10-06T23:06:31.574Z,10.20
2022-10-06T23:11:06.010Z,10.20
2022-10-06T23:15:31.175Z,10.10
2022-10-06T23:19:56.255Z,10.10
2022-10-06T23:24:21.344Z,10.00
2022-10-06T23:28:50.909Z,9.90
2022-10-06T23:33:15.992Z,9.90
2022-10-06T23:37:41.485Z,9.80
2022-10-06T23:42:09.561Z,9.80
2022-10-06T23:46:34.643Z,9.70
2022-10-06T23:51:05.740Z,9.70
2022-10-06T23:55:30.880Z,9.60
2022-10-06T23:59:56.090Z,9.50
